Time;durP1;ratioP1;P1;durP2;ratioP2;P2;SDS_P1;SDS_P2;PMS_P1;PMS_P2;Temp;Humidity;BMP_temperature;BMP_pressure;BME280_temperature;BME280_humidity;BME280_pressure;Samples;Min_cycle;Max_cycle;Signal;HPM_P1;HPM_P2
2021/05/17 00:02:42;;;;;;;1.23;0.43;;;;;;;;;;4962041;28;20218;-73
2021/05/17 00:05:46;;;;;;;0.60;0.60;;;;;;;;;;4974662;28;20179;-73
2021/05/17 00:08:52;;;;;;;3.90;0.30;;;;;;;;;;4955057;29;20175;-73
2021/05/17 00:11:57;;;;;;;0.70;0.40;;;;;;;;;;4957204;28;20230;-73
2021/05/17 00:15:06;;;;;;;0.40;0.40;;;;;;;;;;4975200;28;20179;-73
2021/05/17 00:18:10;;;;;;;1.17;0.57;;;;;;;;;;4962358;28;20537;-74
2021/05/17 00:21:14;;;;;;;0.50;0.50;;;;;;;;;;4977897;28;20179;-73
2021/05/17 00:24:19;;;;;;;1.50;0.40;;;;;;;;;;4966198;28;20175;-73
2021/05/17 00:27:24;;;;;;;0.47;0.47;;;;;;;;;;4977607;28;20195;-72
2021/05/17 00:30:30;;;;;;;0.80;0.50;;;;;;;;;;4987918;28;20186;-71
2021/05/17 00:33:34;;;;;;;0.50;0.40;;;;;;;;;;4977217;28;20198;-73
2021/05/17 00:36:45;;;;;;;0.60;0.50;;;;;;;;;;4977273;28;20215;-73
2021/05/17 00:39:52;;;;;;;0.70;0.60;;;;;;;;;;4977595;28;20202;-73
2021/05/17 00:42:56;;;;;;;1.13;0.57;;;;;;;;;;4977534;28;20211;-72
2021/05/17 00:46:03;;;;;;;0.77;0.60;;;;;;;;;;4954638;28;20653;-73
2021/05/17 00:49:07;;;;;;;1.43;0.70;;;;;;;;;;4977732;28;20627;-72
2021/05/17 00:52:17;;;;;;;3.53;0.50;;;;;;;;;;4965320;28;20227;-73
2021/05/17 00:55:23;;;;;;;0.80;0.57;;;;;;;;;;4958043;29;20638;-73
2021/05/17 00:58:28;;;;;;;0.43;0.37;;;;;;;;;;4963093;28;20175;-72
2021/05/17 01:01:31;;;;;;;0.73;0.50;;;;;;;;;;4976183;28;20218;-73
2021/05/17 01:04:35;;;;;;;2.37;0.60;;;;;;;;;;4965572;28;20178;-72
2021/05/17 01:07:46;;;;;;;0.63;0.50;;;;;;;;;;4976725;28;20191;-73
2021/05/17 01:10:54;;;;;;;1.60;0.67;;;;;;;;;;4964768;28;20207;-73
2021/05/17 01:14:00;;;;;;;1.33;0.50;;;;;;;;;;4965255;28;20187;-73
2021/05/17 01:17:05;;;;;;;0.67;0.50;;;;;;;;;;4953726;28;20215;-73
2021/05/17 01:20:12;;;;;;;0.40;0.40;;;;;;;;;;4964535;28;20202;-73
2021/05/17 01:26:32;;;;;;;1.30;0.60;;;;;;;;;;4975333;28;20187;-73
2021/05/17 01:29:37;;;;;;;0.80;0.40;;;;;;;;;;4977029;28;20558;-73
2021/05/17 01:32:44;;;;;;;0.50;0.50;;;;;;;;;;4964406;28;20218;-72
2021/05/17 01:35:50;;;;;;;1.20;0.50;;;;;;;;;;4976357;28;20183;-73
2021/05/17 01:38:56;;;;;;;1.43;0.50;;;;;;;;;;4964459;28;20531;-73
2021/05/17 01:42:03;;;;;;;2.37;0.60;;;;;;;;;;4976562;28;20218;-73
2021/05/17 01:45:09;;;;;;;0.50;0.37;;;;;;;;;;4953296;28;20195;-73
2021/05/17 01:48:25;;;;;;;0.47;0.47;;;;;;;;;;4945285;29;20188;-73
2021/05/17 01:51:30;;;;;;;0.50;0.50;;;;;;;;;;4934352;29;20215;-72
2021/05/17 01:54:41;;;;;;;0.70;0.47;;;;;;;;;;4945184;29;20626;-73
2021/05/17 01:57:45;;;;;;;0.47;0.47;;;;;;;;;;4974111;28;20564;-73
2021/05/17 02:00:51;;;;;;;2.20;0.40;;;;;;;;;;4964043;28;20175;-72
2021/05/17 02:03:55;;;;;;;0.80;0.50;;;;;;;;;;4953351;28;20519;-73
2021/05/17 02:06:59;;;;;;;0.40;0.40;;;;;;;;;;4975359;28;20187;-73
2021/05/17 02:10:06;;;;;;;0.40;0.40;;;;;;;;;;4975867;28;20187;-73
2021/05/17 02:13:17;;;;;;;1.13;0.60;;;;;;;;;;4958411;28;20222;-72
2021/05/17 02:16:21;;;;;;;0.80;0.40;;;;;;;;;;4975852;28;20682;-73
2021/05/17 02:19:26;;;;;;;0.93;0.40;;;;;;;;;;4975859;28;20183;-73
2021/05/17 02:22:35;;;;;;;2.33;0.53;;;;;;;;;;4975957;28;20210;-73
2021/05/17 02:25:53;;;;;;;0.93;0.53;;;;;;;;;;4975360;28;20190;-73
2021/05/17 02:29:00;;;;;;;0.63;0.50;;;;;;;;;;4975945;28;20183;-72
2021/05/17 02:32:08;;;;;;;1.00;0.60;;;;;;;;;;4963468;28;20219;-73
2021/05/17 02:35:14;;;;;;;1.13;0.30;;;;;;;;;;4963187;28;20187;-74
2021/05/17 02:38:18;;;;;;;0.67;0.37;;;;;;;;;;4974469;28;20669;-74
2021/05/17 02:41:27;;;;;;;1.10;0.53;;;;;;;;;;4975019;28;20226;-73
2021/05/17 02:44:34;;;;;;;1.30;0.47;;;;;;;;;;4952874;28;20625;-73
2021/05/17 02:47:39;;;;;;;0.93;0.40;;;;;;;;;;4967190;28;20206;-73
2021/05/17 02:50:47;;;;;;;1.90;0.50;;;;;;;;;;4974737;28;20195;-73
2021/05/17 02:53:51;;;;;;;2.93;0.50;;;;;;;;;;4943875;29;20203;-73
2021/05/17 02:57:08;;;;;;;1.17;0.60;;;;;;;;;;4946774;28;20218;-73
2021/05/17 03:00:17;;;;;;;1.43;0.50;;;;;;;;;;4952342;28;20195;-73
2021/05/17 03:03:26;;;;;;;1.23;0.50;;;;;;;;;;4952601;28;20642;-73
2021/05/17 03:06:41;;;;;;;1.67;0.50;;;;;;;;;;4962453;28;20191;-73
2021/05/17 03:09:47;;;;;;;1.07;0.60;;;;;;;;;;4974589;28;20202;-74
2021/05/17 03:12:55;;;;;;;1.10;0.60;;;;;;;;;;4978933;23;20230;-74
2021/05/17 03:16:01;;;;;;;1.27;0.60;;;;;;;;;;4993821;28;20182;-74
2021/05/17 03:19:06;;;;;;;1.43;0.40;;;;;;;;;;4993812;28;20187;-74
2021/05/17 03:22:11;;;;;;;3.77;0.40;;;;;;;;;;4994478;28;20218;-74
2021/05/17 03:25:17;;;;;;;0.60;0.40;;;;;;;;;;4994131;28;20538;-74
2021/05/17 03:28:21;;;;;;;1.73;0.40;;;;;;;;;;4993833;28;20649;-74
2021/05/17 03:31:25;;;;;;;2.10;0.63;;;;;;;;;;4994040;28;20226;-74
2021/05/17 03:34:29;;;;;;;0.23;0.23;;;;;;;;;;4994408;28;20190;-74
2021/05/17 03:37:33;;;;;;;0.40;0.40;;;;;;;;;;4999122;28;20221;-74
2021/05/17 03:40:37;;;;;;;1.57;0.40;;;;;;;;;;4993400;28;20637;-74
2021/05/17 03:43:41;;;;;;;0.50;0.37;;;;;;;;;;4981978;28;20647;-73
2021/05/17 03:46:46;;;;;;;1.17;0.40;;;;;;;;;;5007547;28;20189;-74
2021/05/17 03:49:50;;;;;;;4.70;0.60;;;;;;;;;;5000869;28;20193;-74
2021/05/17 03:52:54;;;;;;;1.70;0.40;;;;;;;;;;4991472;28;20217;-74
2021/05/17 03:55:58;;;;;;;0.93;0.40;;;;;;;;;;5008962;28;20190;-74
2021/05/17 03:59:03;;;;;;;0.90;0.33;;;;;;;;;;4998923;28;20181;-74
2021/05/17 04:02:08;;;;;;;1.90;0.50;;;;;;;;;;4997478;28;20693;-74
2021/05/17 04:15:09;;;;;;;1.17;0.40;;;;;;;;;;4998096;28;20183;-73
2021/05/17 04:18:13;;;;;;;2.13;0.40;;;;;;;;;;4997188;28;20556;-74
2021/05/17 04:21:18;;;;;;;0.97;0.70;;;;;;;;;;5004039;28;20182;-73
2021/05/17 04:24:22;;;;;;;1.23;0.40;;;;;;;;;;4996326;28;20206;-73
2021/05/17 04:27:26;;;;;;;0.63;0.50;;;;;;;;;;4996564;28;20194;-73
2021/05/17 04:30:30;;;;;;;0.87;0.40;;;;;;;;;;4999392;28;20178;-73
2021/05/17 04:33:34;;;;;;;0.40;0.40;;;;;;;;;;5009192;28;20197;-73
2021/05/17 04:36:39;;;;;;;1.50;0.40;;;;;;;;;;5002204;28;20182;-74
2021/05/17 04:39:43;;;;;;;0.40;0.40;;;;;;;;;;4997214;28;20194;-74
2021/05/17 04:42:47;;;;;;;0.50;0.40;;;;;;;;;;4996148;28;20218;-73
2021/05/17 04:45:51;;;;;;;1.17;0.50;;;;;;;;;;4996831;28;20182;-74
2021/05/17 04:48:55;;;;;;;1.13;0.40;;;;;;;;;;4996441;28;20186;-73
2021/05/17 04:51:59;;;;;;;1.00;0.40;;;;;;;;;;5012541;28;20220;-73
2021/05/17 04:55:05;;;;;;;0.87;0.53;;;;;;;;;;5008826;28;20214;-73
2021/05/17 04:58:09;;;;;;;0.30;0.30;;;;;;;;;;4995935;28;20210;-73
2021/05/17 05:01:13;;;;;;;2.30;0.50;;;;;;;;;;4997288;28;20186;-73
2021/05/17 05:04:17;;;;;;;4.87;0.67;;;;;;;;;;5010352;28;20644;-73
2021/05/17 05:07:22;;;;;;;2.17;0.33;;;;;;;;;;5015184;28;20194;-73
2021/05/17 05:10:26;;;;;;;0.70;0.40;;;;;;;;;;5013338;28;20193;-73
2021/05/17 05:13:30;;;;;;;1.60;0.40;;;;;;;;;;5013900;28;20668;-74
2021/05/17 05:16:34;;;;;;;2.47;0.47;;;;;;;;;;5003639;28;20201;-73
2021/05/17 05:19:38;;;;;;;1.13;0.60;;;;;;;;;;5011348;28;20193;-73
2021/05/17 05:22:42;;;;;;;15.33;13.73;;;;;;;;;;5008851;28;20220;-71
2021/05/17 05:32:40;;;;;;;0.77;0.60;;;;;;;;;;4966230;28;20217;-72
2021/05/17 05:35:46;;;;;;;2.07;0.73;;;;;;;;;;5015168;28;20177;-72
2021/05/17 05:38:50;;;;;;;1.10;0.90;;;;;;;;;;4992609;28;20206;-72
2021/05/17 05:41:54;;;;;;;2.63;1.13;;;;;;;;;;4998810;28;20225;-72
2021/05/17 05:44:58;;;;;;;0.77;0.60;;;;;;;;;;4995902;28;20186;-72
2021/05/17 05:48:03;;;;;;;2.40;0.90;;;;;;;;;;5012469;28;20185;-72
2021/05/17 05:51:07;;;;;;;1.20;0.73;;;;;;;;;;5015130;28;20182;-72
2021/05/17 05:54:12;;;;;;;1.83;0.80;;;;;;;;;;5014524;28;20181;-71
2021/05/17 05:57:17;;;;;;;4.03;0.63;;;;;;;;;;5014119;28;20205;-72
2021/05/17 06:00:22;;;;;;;2.77;0.80;;;;;;;;;;5015122;28;20528;-72
2021/05/17 06:03:27;;;;;;;4.07;0.70;;;;;;;;;;5008071;28;20201;-72
2021/05/17 06:06:31;;;;;;;1.87;0.60;;;;;;;;;;5003451;28;20248;-72
2021/05/17 06:09:38;;;;;;;2.67;1.70;;;;;;;;;;4995166;28;20178;-71
2021/05/17 06:12:44;;;;;;;2.33;0.60;;;;;;;;;;4994332;28;20217;-72
2021/05/17 06:15:49;;;;;;;2.17;0.80;;;;;;;;;;5005894;28;20642;-72
2021/05/17 06:18:54;;;;;;;1.10;0.60;;;;;;;;;;4995987;28;20214;-72
2021/05/17 06:21:59;;;;;;;2.17;0.67;;;;;;;;;;5014810;28;20221;-72
2021/05/17 06:25:09;;;;;;;3.03;1.00;;;;;;;;;;5015239;28;20621;-72
2021/05/17 06:28:14;;;;;;;2.03;1.00;;;;;;;;;;5014901;28;20298;-73
2021/05/17 06:31:19;;;;;;;2.83;0.80;;;;;;;;;;5014707;28;20178;-73
2021/05/17 06:34:24;;;;;;;7.60;1.10;;;;;;;;;;5014399;28;20205;-72
2021/05/17 06:37:28;;;;;;;2.63;1.07;;;;;;;;;;5014172;28;20225;-72
2021/05/17 06:40:32;;;;;;;3.17;0.83;;;;;;;;;;5014498;28;20522;-72
2021/05/17 06:43:38;;;;;;;2.77;0.77;;;;;;;;;;5013571;28;20185;-72
2021/05/17 06:46:43;;;;;;;3.23;1.00;;;;;;;;;;5014295;28;20521;-72
2021/05/17 06:49:47;;;;;;;6.07;0.80;;;;;;;;;;5002165;28;20178;-72
2021/05/17 06:52:52;;;;;;;3.37;0.80;;;;;;;;;;5013278;28;20217;-72
2021/05/17 06:56:02;;;;;;;4.67;0.87;;;;;;;;;;5008195;28;20190;-72
2021/05/17 06:59:12;;;;;;;2.80;1.03;;;;;;;;;;4993400;28;20221;-72
2021/05/17 07:02:23;;;;;;;4.87;1.23;;;;;;;;;;4994295;28;20218;-71
2021/05/17 07:05:28;;;;;;;6.03;0.80;;;;;;;;;;4993695;28;20186;-73
2021/05/17 07:12:02;;;;;;;3.57;0.80;;;;;;;;;;4993372;28;20218;-72
2021/05/17 07:15:06;;;;;;;5.17;1.00;;;;;;;;;;4994519;28;20174;-71
2021/05/17 07:18:11;;;;;;;3.20;0.90;;;;;;;;;;4993907;28;20689;-72
2021/05/17 07:24:21;;;;;;;1.87;0.80;;;;;;;;;;4992405;28;20182;-72
2021/05/17 07:27:26;;;;;;;3.23;1.10;;;;;;;;;;4994169;28;20178;-72
2021/05/17 07:30:32;;;;;;;2.37;0.60;;;;;;;;;;4994150;28;20182;-72
2021/05/17 07:33:39;;;;;;;2.17;0.63;;;;;;;;;;4994109;28;20182;-72
2021/05/17 07:36:43;;;;;;;2.63;0.63;;;;;;;;;;4994049;28;20182;-72
2021/05/17 07:39:47;;;;;;;3.13;0.80;;;;;;;;;;4993899;28;20206;-72
2021/05/17 07:42:51;;;;;;;2.03;0.70;;;;;;;;;;4993195;28;20554;-72
2021/05/17 07:45:56;;;;;;;0.93;0.50;;;;;;;;;;4993990;28;20174;-72
2021/05/17 07:49:23;;;;;;;4.53;0.80;;;;;;;;;;4994006;28;20534;-72
2021/05/17 07:52:27;;;;;;;3.80;0.70;;;;;;;;;;4994087;28;20685;-72
2021/05/17 07:55:31;;;;;;;0.80;0.73;;;;;;;;;;4995862;28;20182;-72
2021/05/17 07:58:35;;;;;;;3.10;0.50;;;;;;;;;;5013388;28;20213;-73
2021/05/17 08:01:39;;;;;;;1.90;0.50;;;;;;;;;;5013397;28;20700;-72
2021/05/17 08:04:43;;;;;;;2.33;0.93;;;;;;;;;;5012888;28;20204;-72
2021/05/17 08:07:47;;;;;;;4.63;2.63;;;;;;;;;;5013470;28;20541;-73
2021/05/17 08:10:51;;;;;;;15.77;12.33;;;;;;;;;;5013160;28;20186;-73
2021/05/17 08:13:56;;;;;;;3.13;1.40;;;;;;;;;;4993499;28;20217;-73
2021/05/17 08:17:04;;;;;;;4.00;1.10;;;;;;;;;;4992668;28;20182;-73
2021/05/17 08:20:09;;;;;;;2.17;0.77;;;;;;;;;;4993616;28;20191;-73
2021/05/17 08:23:16;;;;;;;4.37;1.13;;;;;;;;;;4993317;28;20210;-73
2021/05/17 08:26:24;;;;;;;2.93;1.27;;;;;;;;;;4993416;28;20182;-73
2021/05/17 08:29:32;;;;;;;1.10;0.53;;;;;;;;;;4993576;28;20183;-73
2021/05/17 08:32:36;;;;;;;3.27;0.87;;;;;;;;;;4993552;28;20214;-73
2021/05/17 08:36:00;;;;;;;2.50;0.50;;;;;;;;;;4994565;28;20186;-73
2021/05/17 08:39:05;;;;;;;2.53;0.70;;;;;;;;;;4997346;28;20708;-73
2021/05/17 08:42:11;;;;;;;1.20;0.70;;;;;;;;;;5005448;28;20229;-73
2021/05/17 08:45:14;;;;;;;2.20;0.60;;;;;;;;;;4996978;28;20190;-73
2021/05/17 08:48:46;;;;;;;3.53;0.77;;;;;;;;;;4996629;28;20175;-72
2021/05/17 08:52:10;;;;;;;1.83;0.50;;;;;;;;;;4997151;28;20218;-73
2021/05/17 08:55:33;;;;;;;2.77;0.77;;;;;;;;;;4999451;28;20178;-72
2021/05/17 08:58:57;;;;;;;1.70;0.70;;;;;;;;;;5016270;28;20232;-73
2021/05/17 09:02:20;;;;;;;2.47;0.70;;;;;;;;;;5016316;28;20692;-73
2021/05/17 09:05:48;;;;;;;1.20;0.50;;;;;;;;;;5016334;28;20185;-73
2021/05/17 09:09:28;;;;;;;4.77;1.13;;;;;;;;;;5016209;28;20174;-73
2021/05/17 09:13:02;;;;;;;5.57;0.83;;;;;;;;;;5011701;28;20676;-72
2021/05/17 09:16:43;;;;;;;2.10;0.77;;;;;;;;;;5016324;28;20353;-73
2021/05/17 09:20:21;;;;;;;2.00;0.50;;;;;;;;;;5002035;28;20221;-73
2021/05/17 09:23:46;;;;;;;1.57;1.07;;;;;;;;;;5005616;28;20194;-73
2021/05/17 09:27:12;;;;;;;2.93;1.27;;;;;;;;;;5007736;28;20205;-73
2021/05/17 09:31:07;;;;;;;2.73;0.50;;;;;;;;;;5001595;28;20669;-73
2021/05/17 09:34:34;;;;;;;5.87;0.77;;;;;;;;;;4996184;28;20181;-72
2021/05/17 09:37:59;;;;;;;1.63;0.53;;;;;;;;;;4995232;28;20208;-72
2021/05/17 09:41:06;;;;;;;8.00;1.03;;;;;;;;;;5006889;28;20201;-72
2021/05/17 09:44:19;;;;;;;3.43;0.80;;;;;;;;;;4995392;28;20174;-73
2021/05/17 09:47:23;;;;;;;0.90;0.60;;;;;;;;;;4993945;28;20187;-73
2021/05/17 09:50:27;;;;;;;3.60;0.80;;;;;;;;;;4995637;28;20538;-73
2021/05/17 09:53:44;;;;;;;0.70;0.40;;;;;;;;;;4998888;28;20559;-73
2021/05/17 09:57:03;;;;;;;1.90;0.67;;;;;;;;;;5008128;28;20206;-73
2021/05/17 10:00:11;;;;;;;3.83;0.50;;;;;;;;;;5007733;28;20221;-73
2021/05/17 10:03:15;;;;;;;3.37;0.73;;;;;;;;;;4995499;28;20715;-74
2021/05/17 10:06:20;;;;;;;1.03;0.40;;;;;;;;;;4996446;28;20194;-72
2021/05/17 10:09:25;;;;;;;1.77;0.67;;;;;;;;;;5004040;28;20197;-71
2021/05/17 10:12:29;;;;;;;3.50;0.90;;;;;;;;;;5002218;28;20224;-73
2021/05/17 10:15:34;;;;;;;3.53;0.70;;;;;;;;;;5008866;28;20202;-72
2021/05/17 10:18:40;;;;;;;3.73;0.80;;;;;;;;;;4995939;28;20225;-72
2021/05/17 10:21:44;;;;;;;1.97;0.70;;;;;;;;;;5007100;28;20577;-72
2021/05/17 10:24:48;;;;;;;3.00;0.70;;;;;;;;;;5014381;28;20648;-72
2021/05/17 10:27:58;;;;;;;1.10;0.60;;;;;;;;;;5004557;28;20197;-72
2021/05/17 10:31:12;;;;;;;2.07;1.00;;;;;;;;;;5006273;28;20645;-72
2021/05/17 10:34:17;;;;;;;1.47;0.73;;;;;;;;;;5007288;28;20213;-72
2021/05/17 10:37:21;;;;;;;1.20;0.47;;;;;;;;;;5004551;28;20189;-72
2021/05/17 10:40:37;;;;;;;0.67;0.47;;;;;;;;;;5002374;28;20218;-72
2021/05/17 10:47:28;;;;;;;0.77;0.47;;;;;;;;;;4997311;28;20194;-72
2021/05/17 10:50:32;;;;;;;3.07;0.50;;;;;;;;;;5003358;28;20178;-72
2021/05/17 10:53:58;;;;;;;0.47;0.30;;;;;;;;;;4993590;28;20294;-73
2021/05/17 10:57:16;;;;;;;0.53;0.40;;;;;;;;;;4994935;28;20183;-73
2021/05/17 11:00:24;;;;;;;4.07;0.50;;;;;;;;;;4999654;28;20221;-73
2021/05/17 11:03:28;;;;;;;0.80;0.80;;;;;;;;;;5008037;28;20205;-72
2021/05/17 11:06:32;;;;;;;1.70;0.30;;;;;;;;;;4996147;28;20182;-73
2021/05/17 11:09:46;;;;;;;1.30;1.20;;;;;;;;;;4993378;28;20182;-73
2021/05/17 11:13:03;;;;;;;0.50;0.50;;;;;;;;;;5001917;28;20711;-74
2021/05/17 11:16:08;;;;;;;2.67;2.00;;;;;;;;;;5013678;28;20182;-72
2021/05/17 11:19:18;;;;;;;3.47;3.17;;;;;;;;;;5011404;28;20553;-73
2021/05/17 11:22:51;;;;;;;3.97;2.70;;;;;;;;;;5005580;28;20217;-73
2021/05/17 11:26:03;;;;;;;3.10;1.90;;;;;;;;;;4993346;28;20186;-73
2021/05/17 11:29:08;;;;;;;1.37;1.27;;;;;;;;;;4994678;28;20182;-73
2021/05/17 11:32:14;;;;;;;1.63;1.10;;;;;;;;;;4994998;28;20222;-73
2021/05/17 11:35:21;;;;;;;1.20;1.10;;;;;;;;;;4993352;28;20182;-72
2021/05/17 11:38:27;;;;;;;1.70;0.57;;;;;;;;;;4993442;28;20178;-73
2021/05/17 11:41:34;;;;;;;1.20;0.33;;;;;;;;;;5002910;28;20210;-73
2021/05/17 11:44:54;;;;;;;0.40;0.40;;;;;;;;;;4993503;28;20174;-73
2021/05/17 11:48:00;;;;;;;1.13;0.30;;;;;;;;;;4996009;28;20661;-72
2021/05/17 11:51:05;;;;;;;1.03;0.40;;;;;;;;;;5013290;28;20174;-72
2021/05/17 11:54:09;;;;;;;0.30;0.30;;;;;;;;;;5006533;28;20537;-73
2021/05/17 11:57:13;;;;;;;0.43;0.43;;;;;;;;;;5001373;28;20197;-73
2021/05/17 12:00:22;;;;;;;0.60;0.40;;;;;;;;;;5005465;28;20206;-73
2021/05/17 12:03:26;;;;;;;1.00;0.67;;;;;;;;;;4992690;28;20259;-72
2021/05/17 12:06:38;;;;;;;1.40;0.40;;;;;;;;;;4996216;28;20680;-72
2021/05/17 12:09:53;;;;;;;0.50;0.30;;;;;;;;;;5003605;28;20205;-72
2021/05/17 12:12:58;;;;;;;0.63;0.50;;;;;;;;;;5000333;28;20225;-73
2021/05/17 12:16:02;;;;;;;0.70;0.60;;;;;;;;;;4997610;28;20190;-72
2021/05/17 12:19:07;;;;;;;0.50;0.30;;;;;;;;;;5003779;28;20536;-72
2021/05/17 12:22:24;;;;;;;1.03;0.30;;;;;;;;;;4996930;28;20554;-73
2021/05/17 12:25:28;;;;;;;1.83;1.03;;;;;;;;;;5005064;28;20197;-73
2021/05/17 12:28:39;;;;;;;7.73;5.20;;;;;;;;;;4997949;28;20198;-73
2021/05/17 12:31:44;;;;;;;3.80;3.10;;;;;;;;;;5007990;28;20213;-73
2021/05/17 12:34:57;;;;;;;2.03;0.60;;;;;;;;;;4997805;28;20206;-73
2021/05/17 12:38:05;;;;;;;2.03;1.50;;;;;;;;;;4997343;28;20182;-72
2021/05/17 12:41:09;;;;;;;0.60;0.60;;;;;;;;;;4996825;28;20210;-73
2021/05/17 12:44:28;;;;;;;0.60;0.60;;;;;;;;;;4997138;28;20187;-73
2021/05/17 12:47:40;;;;;;;0.40;0.40;;;;;;;;;;4996914;28;20191;-73
2021/05/17 12:50:44;;;;;;;1.17;0.60;;;;;;;;;;4996714;28;20194;-73
2021/05/17 12:53:52;;;;;;;0.70;0.60;;;;;;;;;;5002805;28;20537;-73
2021/05/17 12:57:04;;;;;;;1.50;1.00;;;;;;;;;;5012652;28;20205;-72
2021/05/17 13:00:09;;;;;;;2.10;0.60;;;;;;;;;;5008449;28;20221;-72
2021/05/17 13:03:15;;;;;;;0.30;0.30;;;;;;;;;;5012696;28;20605;-72
2021/05/17 13:06:24;;;;;;;1.03;0.33;;;;;;;;;;5012605;28;20177;-72
2021/05/17 13:09:28;;;;;;;0.43;0.30;;;;;;;;;;5001903;28;20194;-73
2021/05/17 13:12:50;;;;;;;1.40;0.57;;;;;;;;;;5003058;28;20221;-73
2021/05/17 13:16:01;;;;;;;0.40;0.23;;;;;;;;;;5011529;28;20178;-72
2021/05/17 13:30:09;;;;;;;1.47;1.37;;;;;;;;;;4975397;28;20194;-72
2021/05/17 13:33:46;;;;;;;0.90;0.50;;;;;;;;;;4996123;28;20222;-72
2021/05/17 13:36:51;;;;;;;1.47;0.40;;;;;;;;;;5012061;28;20190;-72
2021/05/17 13:39:55;;;;;;;0.37;0.27;;;;;;;;;;4992594;28;20206;-72
2021/05/17 13:42:59;;;;;;;1.67;0.20;;;;;;;;;;4992428;28;20222;-73
2021/05/17 13:46:06;;;;;;;0.53;0.50;;;;;;;;;;4998197;28;20197;-72
2021/05/17 13:49:11;;;;;;;0.80;0.30;;;;;;;;;;5004964;28;20198;-72
2021/05/17 13:52:15;;;;;;;0.30;0.30;;;;;;;;;;4991438;28;20213;-72
2021/05/17 13:55:19;;;;;;;0.37;0.20;;;;;;;;;;5001919;28;20205;-72
2021/05/17 13:58:23;;;;;;;0.67;0.37;;;;;;;;;;5011236;28;20680;-72
2021/05/17 14:01:28;;;;;;;0.90;0.20;;;;;;;;;;5005632;23;20239;-73
2021/05/17 14:04:33;;;;;;;0.83;0.30;;;;;;;;;;4975289;28;20685;-73
2021/05/17 14:07:37;;;;;;;0.53;0.30;;;;;;;;;;4976315;28;20194;-72
2021/05/17 14:10:41;;;;;;;2.93;2.17;;;;;;;;;;4976329;28;20175;-71
2021/05/17 14:13:45;;;;;;;1.07;0.47;;;;;;;;;;4956642;29;20188;-71
2021/05/17 14:16:55;;;;;;;1.50;0.30;;;;;;;;;;4956409;29;20183;-70
2021/05/17 14:19:59;;;;;;;1.07;0.50;;;;;;;;;;4971899;28;20211;-70
2021/05/17 14:23:05;;;;;;;0.27;0.27;;;;;;;;;;4961483;28;20235;-70
2021/05/17 14:26:09;;;;;;;1.07;0.40;;;;;;;;;;4943696;29;20203;-70
2021/05/17 14:29:14;;;;;;;1.03;0.47;;;;;;;;;;4956640;29;20179;-70
2021/05/17 14:32:17;;;;;;;1.00;0.50;;;;;;;;;;4944391;29;20710;-70
2021/05/17 14:35:22;;;;;;;2.03;0.30;;;;;;;;;;4955660;29;20630;-71
2021/05/17 14:38:26;;;;;;;0.70;0.40;;;;;;;;;;4944554;29;20183;-71
2021/05/17 14:41:31;;;;;;;0.50;0.30;;;;;;;;;;4956388;28;20226;-72
2021/05/17 14:44:35;;;;;;;2.47;0.43;;;;;;;;;;4964928;28;20191;-70
2021/05/17 14:47:39;;;;;;;7.00;1.27;;;;;;;;;;4964304;28;20797;-72
2021/05/17 14:50:43;;;;;;;9.50;2.43;;;;;;;;;;4971267;28;20190;-78
2021/05/17 14:53:48;;;;;;;6.90;2.80;;;;;;;;;;4959836;28;20187;-74
2021/05/17 14:56:52;;;;;;;5.70;1.83;;;;;;;;;;4944208;28;20191;-73
2021/05/17 14:59:56;;;;;;;3.47;1.10;;;;;;;;;;4941069;28;20548;-73
2021/05/17 15:03:01;;;;;;;2.17;1.20;;;;;;;;;;4935891;28;20223;-72
2021/05/17 15:06:05;;;;;;;3.03;2.00;;;;;;;;;;4947432;28;20199;-72
2021/05/17 15:09:10;;;;;;;6.83;3.00;;;;;;;;;;4948277;28;20199;-73
2021/05/17 15:12:14;;;;;;;3.07;1.47;;;;;;;;;;4954108;28;20215;-72
2021/05/17 15:15:24;;;;;;;4.33;1.07;;;;;;;;;;4930184;28;20191;-72
2021/05/17 15:18:29;;;;;;;1.37;0.70;;;;;;;;;;4948319;28;20199;-72
2021/05/17 15:21:33;;;;;;;0.80;0.60;;;;;;;;;;4971287;28;20222;-73
2021/05/17 15:24:38;;;;;;;2.60;1.43;;;;;;;;;;4946711;28;20207;-72
2021/05/17 15:27:42;;;;;;;2.67;0.93;;;;;;;;;;4960834;28;20198;-72
2021/05/17 15:30:47;;;;;;;1.10;1.00;;;;;;;;;;4950343;28;20186;-72
2021/05/17 15:33:51;;;;;;;1.10;0.50;;;;;;;;;;4960664;28;20191;-72
2021/05/17 15:36:56;;;;;;;0.50;0.30;;;;;;;;;;4951666;28;20187;-72
2021/05/17 15:40:00;;;;;;;0.33;0.23;;;;;;;;;;4960752;28;20698;-72
2021/05/17 15:43:06;;;;;;;0.30;0.30;;;;;;;;;;4950772;28;20210;-72
2021/05/17 15:46:10;;;;;;;0.33;0.30;;;;;;;;;;4940046;28;20195;-72
2021/05/17 15:49:14;;;;;;;2.50;0.30;;;;;;;;;;4945254;29;20658;-72
2021/05/17 15:52:19;;;;;;;2.27;0.30;;;;;;;;;;4945595;28;20219;-72
2021/05/17 15:55:24;;;;;;;1.03;0.30;;;;;;;;;;4958254;28;20187;-73
2021/05/17 15:58:28;;;;;;;0.43;0.37;;;;;;;;;;4960464;28;20191;-73
2021/05/17 16:01:36;;;;;;;0.40;0.40;;;;;;;;;;4928127;28;20223;-72
2021/05/17 16:04:40;;;;;;;0.63;0.40;;;;;;;;;;4951567;29;20188;-73
2021/05/17 16:07:44;;;;;;;0.33;0.30;;;;;;;;;;4940351;28;20195;-73
2021/05/17 16:10:50;;;;;;;0.40;0.40;;;;;;;;;;4961412;28;20566;-73
2021/05/17 16:14:19;;;;;;;0.37;0.30;;;;;;;;;;4957479;28;20198;-72
2021/05/17 16:23:52;;;;;;;3.27;2.60;;;;;;;;;;4938958;29;20196;-72
2021/05/17 16:26:56;;;;;;;2.43;0.77;;;;;;;;;;4939155;29;20527;-72
2021/05/17 16:30:00;;;;;;;2.47;0.60;;;;;;;;;;4950869;29;20183;-72
2021/05/17 16:33:05;;;;;;;2.40;1.80;;;;;;;;;;4957491;28;20214;-72
2021/05/17 16:36:09;;;;;;;1.20;1.10;;;;;;;;;;4951158;29;20531;-73
2021/05/17 16:39:13;;;;;;;1.30;1.00;;;;;;;;;;4951035;29;20183;-73
2021/05/17 16:42:17;;;;;;;0.70;0.60;;;;;;;;;;4938832;28;20223;-72
2021/05/17 16:45:21;;;;;;;2.40;0.60;;;;;;;;;;4961340;28;20203;-73
2021/05/17 16:48:26;;;;;;;1.37;0.90;;;;;;;;;;4939827;28;20195;-75
2021/05/17 16:51:39;;;;;;;2.00;0.60;;;;;;;;;;4961169;28;20223;-73
2021/05/17 16:54:43;;;;;;;1.20;0.60;;;;;;;;;;4966786;28;20203;-73
2021/05/17 16:57:48;;;;;;;5.37;0.97;;;;;;;;;;4942827;29;20188;-74
2021/05/17 17:00:54;;;;;;;1.87;0.97;;;;;;;;;;4955248;28;20219;-73
2021/05/17 17:03:59;;;;;;;1.50;0.63;;;;;;;;;;4960807;28;20207;-73
2021/05/17 17:07:04;;;;;;;1.20;0.50;;;;;;;;;;4973218;28;20187;-74
2021/05/17 17:10:10;;;;;;;0.73;0.50;;;;;;;;;;4973094;28;20681;-72
2021/05/17 17:13:14;;;;;;;0.57;0.50;;;;;;;;;;4954008;28;20571;-72
2021/05/17 17:16:20;;;;;;;0.47;0.43;;;;;;;;;;4955583;28;20180;-72
2021/05/17 17:19:25;;;;;;;0.70;0.50;;;;;;;;;;4950207;28;20183;-72
2021/05/17 17:22:29;;;;;;;2.00;0.50;;;;;;;;;;4960899;28;20570;-72
2021/05/17 17:25:33;;;;;;;0.33;0.30;;;;;;;;;;4973041;28;20183;-72
2021/05/17 17:28:38;;;;;;;0.97;0.50;;;;;;;;;;4937680;28;20199;-72
2021/05/17 17:31:43;;;;;;;0.60;0.50;;;;;;;;;;4972715;28;20218;-72
2021/05/17 17:34:47;;;;;;;1.40;0.40;;;;;;;;;;4972446;28;20198;-72
2021/05/17 17:37:51;;;;;;;0.73;0.40;;;;;;;;;;4959575;28;20199;-72
2021/05/17 17:40:55;;;;;;;0.83;0.43;;;;;;;;;;4958739;28;20721;-72
2021/05/17 17:43:59;;;;;;;0.50;0.40;;;;;;;;;;4971140;28;20202;-72
2021/05/17 17:47:04;;;;;;;3.53;0.50;;;;;;;;;;4972284;28;20179;-72
2021/05/17 17:50:10;;;;;;;0.63;0.40;;;;;;;;;;4960780;28;20183;-72
2021/05/17 17:53:15;;;;;;;1.57;0.50;;;;;;;;;;4950676;29;20697;-72
2021/05/17 17:56:19;;;;;;;0.30;0.30;;;;;;;;;;4953047;28;20195;-72
2021/05/17 17:59:25;;;;;;;0.47;0.30;;;;;;;;;;4964307;28;20194;-73
2021/05/17 18:02:30;;;;;;;1.00;0.40;;;;;;;;;;4959224;28;20231;-74
2021/05/17 18:05:35;;;;;;;1.03;0.40;;;;;;;;;;4966530;28;20206;-73
2021/05/17 18:08:39;;;;;;;0.23;0.23;;;;;;;;;;4971191;28;20179;-73
2021/05/17 18:11:44;;;;;;;0.60;0.40;;;;;;;;;;4960514;28;20223;-73
2021/05/17 18:14:49;;;;;;;0.90;0.47;;;;;;;;;;4961006;28;20539;-73
2021/05/17 18:17:53;;;;;;;1.30;0.40;;;;;;;;;;4971942;28;20570;-72
2021/05/17 18:20:58;;;;;;;1.30;0.43;;;;;;;;;;4967250;28;20198;-73
2021/05/17 18:24:04;;;;;;;0.53;0.43;;;;;;;;;;4958431;28;20194;-72
2021/05/17 18:27:09;;;;;;;0.60;0.50;;;;;;;;;;4940755;29;20191;-72
2021/05/17 18:30:16;;;;;;;1.20;0.60;;;;;;;;;;4940649;29;20192;-72
2021/05/17 18:33:33;;;;;;;0.50;0.50;;;;;;;;;;4953714;28;20222;-72
2021/05/17 18:36:38;;;;;;;1.03;0.50;;;;;;;;;;4940164;29;20750;-72
2021/05/17 18:39:42;;;;;;;0.93;0.50;;;;;;;;;;4960756;28;20535;-73
2021/05/17 18:42:47;;;;;;;1.10;0.60;;;;;;;;;;4940347;29;20967;-73
2021/05/17 18:45:51;;;;;;;3.23;0.60;;;;;;;;;;4966532;28;20198;-73
2021/05/17 18:49:00;;;;;;;1.07;0.60;;;;;;;;;;4956607;28;20692;-73
2021/05/17 18:52:04;;;;;;;1.07;0.70;;;;;;;;;;4952011;29;20216;-73
2021/05/17 18:55:09;;;;;;;1.27;0.50;;;;;;;;;;4960358;28;20203;-73
2021/05/17 18:58:13;;;;;;;1.10;0.80;;;;;;;;;;4959173;28;20194;-72
2021/05/17 19:01:19;;;;;;;1.60;0.50;;;;;;;;;;4970883;28;20214;-73
2021/05/17 19:04:24;;;;;;;0.60;0.50;;;;;;;;;;4957455;28;20187;-73
2021/05/17 19:07:28;;;;;;;1.07;0.63;;;;;;;;;;4955963;28;20489;-73
2021/05/17 19:10:33;;;;;;;2.67;0.67;;;;;;;;;;4957102;28;20206;-73
2021/05/17 19:13:39;;;;;;;0.90;0.60;;;;;;;;;;4939835;29;20200;-73
2021/05/17 19:16:43;;;;;;;1.03;0.60;;;;;;;;;;4958691;28;20191;-73
2021/05/17 19:19:48;;;;;;;2.90;0.70;;;;;;;;;;4946531;28;20206;-73
2021/05/17 19:22:53;;;;;;;1.60;0.50;;;;;;;;;;4950419;28;20219;-73
2021/05/17 19:25:58;;;;;;;1.37;0.70;;;;;;;;;;4939708;28;20200;-73
2021/05/17 19:29:03;;;;;;;2.93;0.67;;;;;;;;;;4943079;28;20191;-73
2021/05/17 19:32:07;;;;;;;1.00;0.60;;;;;;;;;;4947708;28;20226;-73